Time,TemperatureF,DewpointF,PressureIn,WindDirection,WindDirectionDegrees,WindSpeedMPH,WindSpeedGustMPH,Humidity,HourlyPrecipIn,Conditions,Clouds,dailyrainin,SolarRadiationWatts/m^2,SoftwareType,DateUTC
2013-08-01 00:02:00,65.0,62.0,30.00,NW,309,0.0,3.0,90,0.00,,BKN055,0.00,0.00,VWS V14.01,2013-08-01 04:02:00,
2013-08-01 00:22:00,64.8,61.8,30.00,WSW,253,3.0,4.0,90,0.00,,BKN055,0.00,0.00,VWS V14.01,2013-08-01 04:22:00,
2013-08-01 00:32:00,64.5,62.1,30.00,West,262,0.0,3.0,92,0.00,,BKN055,0.00,0.00,VWS V14.01,2013-08-01 04:32:00,
2013-08-01 00:42:00,64.3,62.2,30.00,WSW,247,0.0,3.0,93,0.00,,BKN055,0.00,0.00,VWS V14.01,2013-08-01 04:42:00,
2013-08-01 00:52:00,63.9,62.4,30.00,WSW,247,0.0,1.0,95,0.00,,BKN055,0.00,0.00,VWS V14.01,2013-08-01 04:52:00,
2013-08-01 01:02:00,63.7,62.2,29.99,WSW,247,0.0,2.0,95,0.00,,BKN055,0.00,0.00,VWS V14.01,2013-08-01 05:02:00,
2013-08-01 01:12:00,63.4,62.2,29.99,WSW,247,1.0,1.0,96,0.00,,BKN055,0.00,0.00,VWS V14.01,2013-08-01 05:12:00,
2013-08-01 01:22:00,63.2,62.0,29.99,WSW,247,0.0,3.0,96,0.00,,BKN055,0.00,0.00,VWS V14.01,2013-08-01 05:22:00,
2013-08-01 01:32:00,62.7,62.1,29.99,WSW,247,2.0,4.0,98,0.00,,BKN055,0.00,0.00,VWS V14.01,2013-08-01 05:32:00,
2013-08-01 01:42:00,62.7,62.1,29.99,WSW,247,0.0,3.0,98,0.00,,BKN055,0.00,0.00,VWS V14.01,2013-08-01 05:42:00,
2013-08-01 01:52:00,62.7,62.1,29.99,WSW,247,0.0,2.0,98,0.00,,BKN055,0.00,0.00,VWS V14.01,2013-08-01 05:52:00,
2013-08-01 02:02:00,62.4,62.1,29.99,WSW,247,0.0,3.0,99,0.00,,CLR,0.00,0.00,VWS V14.01,2013-08-01 06:02:00,
2013-08-01 02:12:00,62.3,62.0,29.99,WSW,247,0.0,3.0,99,0.00,,CLR,0.00,0.00,VWS V14.01,2013-08-01 06:12:00,
2013-08-01 02:22:00,62.4,62.1,29.99,WSW,247,2.0,3.0,99,0.00,,CLR,0.00,0.00,VWS V14.01,2013-08-01 06:22:00,
2013-08-01 02:32:00,62.6,62.3,29.98,WSW,247,2.0,3.0,99,0.00,,CLR,0.00,0.00,VWS V14.01,2013-08-01 06:32:00,
2013-08-01 02:42:00,62.4,61.8,29.98,WSW,247,0.0,3.0,98,0.00,,CLR,0.00,0.00,VWS V14.01,2013-08-01 06:42:00,
2013-08-01 02:52:00,62.0,61.7,29.98,WSW,247,0.0,0.0,99,0.00,,CLR,0.00,0.00,VWS V14.01,2013-08-01 06:52:00,
2013-08-01 03:02:00,61.6,61.6,29.97,WSW,247,0.0,1.0,100,0.00,,CLR,0.00,0.00,VWS V14.01,2013-08-01 07:02:00,
2013-08-01 03:12:00,61.5,61.5,29.97,WSW,247,0.0,3.0,100,0.00,,CLR,0.00,0.00,VWS V14.01,2013-08-01 07:12:00,
2013-08-01 03:32:00,61.0,61.0,29.97,WSW,247,0.0,0.0,100,0.00,,CLR,0.00,0.00,VWS V14.01,2013-08-01 07:32:00,
2013-08-01 03:42:00,60.9,60.9,29.97,WSW,247,0.0,0.0,100,0.00,,CLR,0.00,0.00,VWS V14.01,2013-08-01 07:42:00,
2013-08-01 04:02:00,60.5,60.5,29.95,WSW,247,0.0,0.0,100,0.00,,CLR,0.00,0.00,VWS V14.01,2013-08-01 08:02:00,
2013-08-01 04:12:00,60.2,60.2,29.95,WSW,247,0.0,0.0,100,0.00,,CLR,0.00,0.00,VWS V14.01,2013-08-01 08:12:00,
2013-08-01 04:32:00,60.2,60.2,29.96,WSW,247,0.0,0.0,100,0.00,,CLR,0.00,0.00,VWS V14.01,2013-08-01 08:32:00,
2013-08-01 04:42:00,59.9,59.9,29.96,WSW,247,0.0,0.0,100,0.00,,CLR,0.00,0.00,VWS V14.01,2013-08-01 08:42:00,
2013-08-01 04:52:00,59.9,59.9,29.96,WSW,247,0.0,0.0,100,0.00,,CLR,0.00,0.00,VWS V14.01,2013-08-01 08:52:00,
2013-08-01 05:02:00,59.9,59.9,29.96,WSW,247,0.0,0.0,100,0.00,,CLR,0.00,0.00,VWS V14.01,2013-08-01 09:02:00,
2013-08-01 05:12:00,59.6,59.6,29.96,WSW,247,0.0,0.0,100,0.00,,CLR,0.00,0.00,VWS V14.01,2013-08-01 09:12:00,
2013-08-01 05:22:00,59.5,59.5,29.96,WSW,247,0.0,0.0,100,0.00,,CLR,0.00,0.00,VWS V14.01,2013-08-01 09:22:00,
2013-08-01 05:42:00,59.2,59.2,29.96,WSW,247,0.0,0.0,100,0.00,,CLR,0.00,0.00,VWS V14.01,2013-08-01 09:42:00,
2013-08-01 06:12:00,59.3,59.3,29.97,WSW,247,0.0,0.0,100,0.00,,CLR,0.00,9.00,VWS V14.01,2013-08-01 10:12:00,
2013-08-01 06:22:00,59.5,59.5,29.97,WSW,247,0.0,0.0,100,0.00,,CLR,0.00,14.00,VWS V14.01,2013-08-01 10:22:00,
2013-08-01 06:32:00,59.6,59.6,29.97,WSW,247,0.0,0.0,100,0.00,,CLR,0.00,21.00,VWS V14.01,2013-08-01 10:32:00,
2013-08-01 07:12:00,61.8,61.5,29.96,WSW,247,0.0,2.0,99,0.00,,,0.00,69.00,VWS V14.01,2013-08-01 11:12:00,
2013-08-01 07:22:00,62.4,61.8,29.97,WSW,247,0.0,0.0,98,0.00,,,0.00,69.00,VWS V14.01,2013-08-01 11:22:00,
2013-08-01 08:12:00,65.2,64.0,29.96,WSW,250,0.0,3.0,96,0.00,,FEW002,0.00,118.00,VWS V14.01,2013-08-01 12:12:00,
2013-08-01 08:32:00,65.2,63.7,29.96,North,1,0.0,3.0,95,0.00,,FEW002,0.00,76.00,VWS V14.01,2013-08-01 12:32:00,
2013-08-01 08:42:00,65.5,63.7,29.96,North,1,0.0,1.0,94,0.00,,FEW002,0.00,90.00,VWS V14.01,2013-08-01 12:42:00,
2013-08-01 09:12:00,67.4,63.4,29.95,NNE,17,0.0,3.0,87,0.00,,FEW002,0.00,53.00,VWS V14.01,2013-08-01 13:12:00,
2013-08-01 09:22:00,68.6,63.2,29.95,NNE,17,0.0,0.0,83,0.00,,FEW002,0.00,67.00,VWS V14.01,2013-08-01 13:22:00,
2013-08-01 09:52:00,69.9,62.7,29.94,NNE,17,0.0,0.0,78,0.00,,CLR,0.00,90.00,VWS V14.01,2013-08-01 13:52:00,
2013-08-01 10:12:00,70.8,63.6,29.93,NNE,17,0.0,4.0,78,0.00,,CLR,0.00,156.00,VWS V14.01,2013-08-01 14:12:00,
2013-08-01 11:22:00,74.2,64.2,29.90,NE,44,0.0,5.0,71,0.00,,FEW046,0.00,174.00,VWS V14.01,2013-08-01 15:22:00,
2013-08-01 11:32:00,75.6,63.5,29.89,NE,44,0.0,4.0,66,0.00,,FEW046,0.00,907.00,VWS V14.01,2013-08-01 15:32:00,
2013-08-01 11:42:00,77.0,65.2,29.89,WSW,251,3.0,7.0,67,0.00,,FEW046,0.00,939.00,VWS V14.01,2013-08-01 15:42:00,
2013-08-01 11:52:00,76.1,59.8,29.89,WNW,290,5.0,10.0,57,0.00,,FEW046,0.00,207.00,VWS V14.01,2013-08-01 15:52:00,
2013-08-01 12:02:00,76.0,62.0,29.89,NW,310,1.0,5.0,62,0.00,,BKN050,0.00,1079.00,VWS V14.01,2013-08-01 16:02:00,
2013-08-01 12:12:00,77.9,59.4,29.89,WNW,285,5.0,6.0,53,0.00,,BKN050,0.00,984.00,VWS V14.01,2013-08-01 16:12:00,
2013-08-01 12:52:00,77.9,59.4,29.87,West,261,2.0,9.0,53,0.00,,BKN050,0.00,1107.00,VWS V14.01,2013-08-01 16:52:00,
2013-08-01 13:12:00,79.9,60.7,29.87,West,277,11.0,15.0,52,0.00,,SCT060,0.00,1100.00,VWS V14.01,2013-08-01 17:12:00,
2013-08-01 13:22:00,77.9,59.9,29.86,West,269,0.0,14.0,54,0.00,,SCT060,0.00,213.00,VWS V14.01,2013-08-01 17:22:00,
2013-08-01 13:32:00,77.7,61.8,29.86,NW,323,0.0,6.0,58,0.00,,SCT060,0.00,912.00,VWS V14.01,2013-08-01 17:32:00,
2013-08-01 13:42:00,78.1,59.1,29.86,WSW,257,0.0,7.0,52,0.00,,SCT060,0.00,295.00,VWS V14.01,2013-08-01 17:42:00,
2013-08-01 13:52:00,77.2,61.8,29.86,West,262,4.0,7.0,59,0.00,,SCT060,0.00,949.00,VWS V14.01,2013-08-01 17:52:00,
2013-08-01 14:02:00,77.4,60.0,29.86,West,269,3.0,11.0,55,0.00,,BKN070,0.00,338.00,VWS V14.01,2013-08-01 18:02:00,
2013-08-01 14:12:00,77.4,62.9,29.86,West,269,4.0,9.0,61,0.00,,BKN070,0.00,1053.00,VWS V14.01,2013-08-01 18:12:00,
2013-08-01 14:22:00,76.1,60.8,29.85,North,0,2.0,9.0,59,0.00,,BKN070,0.00,274.00,VWS V14.01,2013-08-01 18:22:00,
2013-08-01 14:32:00,78.1,60.6,29.85,WSW,252,3.0,7.0,55,0.00,,BKN070,0.00,997.00,VWS V14.01,2013-08-01 18:32:00,
2013-08-01 14:42:00,78.8,62.3,29.85,West,269,4.0,12.0,57,0.00,,BKN070,0.00,454.00,VWS V14.01,2013-08-01 18:42:00,
2013-08-01 15:02:00,77.6,64.0,29.84,West,279,4.0,10.0,63,0.00,,BKN065,0.00,696.00,VWS V14.01,2013-08-01 19:02:00,
2013-08-01 15:42:00,75.3,62.3,29.84,West,260,2.0,6.0,64,0.00,,BKN065,0.00,107.00,VWS V14.01,2013-08-01 19:42:00,
2013-08-01 16:22:00,73.0,65.4,29.85,WSW,255,0.0,7.0,77,0.00,,BKN090,0.00,40.00,VWS V14.01,2013-08-01 20:22:00,
2013-08-01 16:32:00,73.2,63.2,29.85,WSW,250,4.0,8.0,71,0.00,,BKN090,0.00,35.00,VWS V14.01,2013-08-01 20:32:00,
2013-08-01 16:42:00,73.2,64.8,29.85,West,260,2.0,5.0,75,0.00,,BKN090,0.00,69.00,VWS V14.01,2013-08-01 20:42:00,
2013-08-01 16:52:00,72.3,63.9,29.85,West,260,0.0,4.0,75,0.00,,BKN090,0.00,65.00,VWS V14.01,2013-08-01 20:52:00,
2013-08-01 17:02:00,71.6,64.0,29.85,ESE,122,0.0,3.0,77,0.00,,OVC060,0.00,44.00,VWS V14.01,2013-08-01 21:02:00,
2013-08-01 17:12:00,72.0,64.8,29.85,WSW,252,20.0,20.0,78,0.00,,OVC060,0.00,14.00,VWS V14.01,2013-08-01 21:12:00,
2013-08-01 17:22:00,69.4,66.3,29.87,SW,236,3.0,20.0,90,0.01,,OVC060,0.01,33.00,VWS V14.01,2013-08-01 21:22:00,
2013-08-01 17:32:00,68.1,66.3,29.86,SW,234,0.0,4.0,94,0.01,,BKN075,0.01,35.00,VWS V14.01,2013-08-01 21:32:00,
2013-08-01 17:42:00,68.1,66.9,29.86,SW,234,0.0,3.0,96,0.01,,BKN075,0.01,54.00,VWS V14.01,2013-08-01 21:42:00,
2013-08-01 18:02:00,67.3,66.4,29.86,SW,227,0.0,8.0,97,0.02,,BKN090,0.02,5.00,VWS V14.01,2013-08-01 22:02:00,
2013-08-01 18:12:00,66.8,66.2,29.86,WSW,248,0.0,6.0,98,0.03,,BKN090,0.03,12.00,VWS V14.01,2013-08-01 22:12:00,
2013-08-01 18:22:00,66.6,66.3,29.86,WSW,247,0.0,5.0,99,0.03,,BKN090,0.03,12.00,VWS V14.01,2013-08-01 22:22:00,
2013-08-01 18:42:00,66.8,66.8,29.85,WSW,247,0.0,3.0,100,0.03,,BKN090,0.04,19.00,VWS V14.01,2013-08-01 22:42:00,
2013-08-01 18:52:00,66.8,66.8,29.85,WSW,247,2.0,5.0,100,0.03,,BKN090,0.04,14.00,VWS V14.01,2013-08-01 22:52:00,
2013-08-01 19:02:00,66.9,66.9,29.85,WSW,247,0.0,4.0,100,0.02,,BKN038,0.04,12.00,VWS V14.01,2013-08-01 23:02:00,
2013-08-01 19:42:00,66.8,66.8,29.85,WSW,238,0.0,4.0,100,0.00,,BKN050,0.04,0.00,VWS V14.01,2013-08-01 23:42:00,
2013-08-01 20:02:00,66.8,66.8,29.85,West,274,4.0,8.0,100,0.00,,OVC050,0.04,0.00,VWS V14.01,2013-08-02 00:02:00,
2013-08-01 20:12:00,66.6,66.6,29.85,WSW,254,2.0,4.0,100,0.00,,OVC050,0.04,0.00,VWS V14.01,2013-08-02 00:12:00,
2013-08-01 20:22:00,66.6,66.3,29.84,WSW,254,0.0,4.0,99,0.00,,OVC050,0.04,0.00,VWS V14.01,2013-08-02 00:22:00,
2013-08-01 20:32:00,66.6,66.0,29.84,WSW,254,0.0,5.0,98,0.00,,OVC050,0.04,0.00,VWS V14.01,2013-08-02 00:32:00,
2013-08-01 20:42:00,66.6,66.0,29.84,WSW,250,3.0,6.0,98,0.00,,OVC050,0.04,0.00,VWS V14.01,2013-08-02 00:42:00,
2013-08-01 21:12:00,66.4,65.5,29.85,WSW,243,5.0,7.0,97,0.00,,OVC042,0.04,0.00,VWS V14.01,2013-08-02 01:12:00,
2013-08-01 21:22:00,66.1,65.8,29.84,WSW,250,0.0,6.0,99,0.00,,OVC042,0.04,0.00,VWS V14.01,2013-08-02 01:22:00,
2013-08-01 21:32:00,66.0,66.0,29.84,West,264,0.0,5.0,100,0.00,,OVC042,0.04,0.00,VWS V14.01,2013-08-02 01:32:00,
2013-08-01 21:42:00,66.1,65.5,29.84,West,264,2.0,4.0,98,0.00,,OVC042,0.04,0.00,VWS V14.01,2013-08-02 01:42:00,
2013-08-01 21:52:00,66.3,65.1,29.83,WSW,254,5.0,6.0,96,0.00,,OVC042,0.04,0.00,VWS V14.01,2013-08-02 01:52:00,
2013-08-01 22:02:00,66.6,64.2,29.83,WSW,245,4.0,10.0,92,0.00,,OVC036,0.04,0.00,VWS V14.01,2013-08-02 02:02:00,
2013-08-01 22:12:00,66.3,64.8,29.83,WSW,243,5.0,12.0,95,0.00,,OVC036,0.04,0.00,VWS V14.01,2013-08-02 02:12:00,
2013-08-01 22:32:00,65.6,63.8,29.83,SW,234,10.0,19.0,94,0.01,,OVC036,0.05,0.00,VWS V14.01,2013-08-02 02:32:00,
2013-08-01 22:42:00,65.3,64.4,29.83,SW,232,4.0,10.0,97,0.03,,OVC036,0.07,0.00,VWS V14.01,2013-08-02 02:42:00,
2013-08-01 22:52:00,65.0,64.4,29.83,WSW,248,5.0,11.0,98,0.07,,OVC036,0.11,0.00,VWS V14.01,2013-08-02 02:52:00,
2013-08-01 23:02:00,65.0,64.4,29.83,West,260,11.0,12.0,98,0.09,,BKN038,0.13,0.00,VWS V14.01,2013-08-02 03:02:00,
2013-08-01 23:12:00,64.8,64.5,29.83,WSW,250,7.0,12.0,99,0.11,,BKN038,0.15,0.00,VWS V14.01,2013-08-02 03:12:00,
2013-08-01 23:22:00,64.7,64.4,29.82,WSW,245,4.0,14.0,99,0.14,,BKN038,0.18,0.00,VWS V14.01,2013-08-02 03:22:00,
2013-08-01 23:32:00,64.5,64.2,29.82,SW,230,5.0,14.0,99,0.18,,BKN038,0.22,0.00,VWS V14.01,2013-08-02 03:32:00,
2013-08-01 23:52:00,63.7,63.7,29.82,WSW,247,5.0,13.0,100,0.23,,BKN038,0.30,0.00,VWS V14.01,2013-08-02 03:52:00,